Terminal Aerodrome Forecast
Issued by NWS Mt. Holly, NJ

Home | Current Version | Previous Version | Text Only | Print | Product List | Glossary On
Versions: 1 2 3 4 5 6 7 8 9 10 11 12 13 14 15 16
000
FTUS41 KPHI 020529
TAFACY
TAF
KACY 020529Z 0206/0306 00000KT P6SM SKC
     FM021300 20010KT P6SM FEW250
     FM021600 19015G25KT P6SM SCT250
     FM022300 19015KT P6SM BKN150=

USA.gov is the U.S. government's official web portal to all federal, state and local government web resources and services.